Terminal Aerodrome Forecast
Issued by NWS Charleston, WV

Current Version | Previous Version | Graphics & Text | Print | Product List | Glossary Off
Versions: 1 2 3 4 5 6 7 8 9 10 11 12 13 14 15 16 17 18 19 20 21 22 23 24 25 26 27 28

000
FTUS41 KRLX 270500 RRA
TAFBKW
TAF
KBKW 270544Z 2706/2806 31009G14KT 3SM -SN OVC020
      TEMPO 2706/2710 1 1/2SM -SN BKN010
     FM271000 31008KT 4SM -SN BKN020
     FM271200 30007KT 6SM -SN BKN025
     FM271500 31008KT P6SM BKN025
     FM272300 32005KT P6SM SCT030
     FM280100 VRB03KT P6SM BKN250=

USA.gov is the U.S. government's official web portal to all federal, state and local government web resources and services.